0R0

Columbia-Marion County Airport

Columbia, Mississippi, USA
METAR K0R0 092135Z AUTO 33009KT 10SM OVC009 04/02 A3016 RMK AO2
Observed Flight Rules
Dec-9 @ 21:35 UTC (6 minutes ago) Instrument Flight Rules
Wind Visibility Clouds
330° at 9 knots 10 miles
  • Overcast at 900' AGL
Temperatures Readings
Current 4°C / 39°F
Dewpoint 2°C / 36°F
Humidity 87%
Altimeter 30.16" Hg
Pressure 1021 hPa
Elevation 81
METAR K0R0 092135Z AUTO 33009KT 10SM OVC009 04/02 A3016 RMK AO2
Observed Flight Rules
Dec-9 @ 21:35 UTC
(6 minutes ago)
IFR
Wind Visibility
330° at 9 knots 10 miles
Clouds
  • Overcast at 900' AGL
Temperature Dewpoint
4°C / 39°F 2°C / 36°F
Humidity Altimeter Pressure
87% 30.16" Hg 1021 hPa